createdAt,value
2018-04-07T00:00:38.326Z,67.81
2018-04-07T00:03:06.306Z,67.57
2018-04-07T00:05:34.302Z,67.16
2018-04-07T00:08:02.269Z,67.33
2018-04-07T00:10:30.257Z,67.59
2018-04-07T00:12:58.226Z,67.64
2018-04-07T00:15:26.218Z,66.79
2018-04-07T00:17:54.119Z,67.22
2018-04-07T00:20:22.081Z,67.22
2018-04-07T00:22:50.067Z,67.27
2018-04-07T00:25:17.953Z,67.48
2018-04-07T00:27:46.034Z,67.15
2018-04-07T00:30:13.937Z,66.88
2018-04-07T00:32:41.860Z,67.27
2018-04-07T00:35:09.768Z,67.47
2018-04-07T00:37:37.678Z,67.59
2018-04-07T00:40:05.592Z,67.66
2018-04-07T00:42:33.495Z,67.89
2018-04-07T00:45:02.309Z,67.92
2018-04-07T00:47:30.233Z,67.82
2018-04-07T00:49:58.136Z,66.88
2018-04-07T00:52:26.236Z,67.38
2018-04-07T00:54:54.283Z,67.67
2018-04-07T00:57:22.162Z,67.57
2018-04-07T00:59:50.083Z,67.77
2018-04-07T01:02:17.984Z,67.72
2018-04-07T01:04:45.917Z,68.12
2018-04-07T01:07:13.855Z,68.34
2018-04-07T01:09:41.764Z,68.01
2018-04-07T01:12:09.673Z,68.33
2018-04-07T01:14:37.599Z,68.32
2018-04-07T01:17:05.530Z,68.30
2018-04-07T01:19:33.437Z,68.20
2018-04-07T01:22:01.442Z,68.30
2018-04-07T01:24:29.348Z,68.06
2018-04-07T01:26:57.247Z,68.70
2018-04-07T01:29:25.174Z,68.72
2018-04-07T01:31:53.081Z,68.81
2018-04-07T01:34:20.998Z,68.63
2018-04-07T01:36:49.028Z,68.49
2018-04-07T01:39:16.941Z,68.46
2018-04-07T01:41:45.469Z,68.13
2018-04-07T01:44:13.387Z,68.07
2018-04-07T01:46:41.293Z,67.89
2018-04-07T01:49:09.201Z,68.06
2018-04-07T01:51:37.115Z,68.00
2018-04-07T01:54:05.046Z,67.62
2018-04-07T01:56:33.824Z,67.56
2018-04-07T01:59:01.794Z,67.12
2018-04-07T02:01:29.708Z,66.81
2018-04-07T02:03:57.605Z,66.88
2018-04-07T02:06:25.544Z,66.45
2018-04-07T02:08:53.450Z,66.65
2018-04-07T02:11:21.829Z,66.17
2018-04-07T02:13:50.188Z,65.46
2018-04-07T02:16:18.100Z,65.53
2018-04-07T02:18:46.029Z,65.44
2018-04-07T02:21:14.869Z,65.44
2018-04-07T02:23:43.282Z,65.28
2018-04-07T02:26:11.980Z,65.84
2018-04-07T02:28:39.879Z,65.76
2018-04-07T02:31:07.797Z,65.72
2018-04-07T02:33:35.721Z,66.01
2018-04-07T02:36:03.666Z,65.95
2018-04-07T02:38:31.578Z,65.95
2018-04-07T02:40:59.473Z,66.04
2018-04-07T02:43:27.393Z,66.30
2018-04-07T02:45:56.020Z,66.11
2018-04-07T02:48:23.932Z,66.20
2018-04-07T02:50:51.875Z,66.37
2018-04-07T02:53:19.774Z,66.39
2018-04-07T02:55:47.698Z,66.24
2018-04-07T02:58:15.597Z,66.48
2018-04-07T03:00:43.496Z,66.44
2018-04-07T03:03:11.404Z,67.01
2018-04-07T03:05:39.321Z,66.45
2018-04-07T03:08:07.248Z,66.89
2018-04-07T03:10:35.271Z,66.88
2018-04-07T03:13:03.160Z,67.04
2018-04-07T03:15:31.080Z,67.10
2018-04-07T03:17:58.978Z,66.99
2018-04-07T03:20:26.909Z,66.70
2018-04-07T03:22:54.807Z,67.04
2018-04-07T03:25:22.756Z,67.22
2018-04-07T03:27:50.730Z,67.62
2018-04-07T03:30:18.601Z,67.65
2018-04-07T03:32:46.522Z,67.99
2018-04-07T03:35:14.428Z,67.62
2018-04-07T03:37:42.342Z,67.49
2018-04-07T03:40:10.253Z,68.01
2018-04-07T03:42:38.146Z,67.79
2018-04-07T03:45:06.091Z,68.11
2018-04-07T03:47:34.002Z,68.46
2018-04-07T03:50:01.917Z,68.58
2018-04-07T03:52:29.828Z,68.31
2018-04-07T03:54:57.737Z,68.47
2018-04-07T03:57:25.670Z,68.91
2018-04-07T03:59:53.585Z,69.46
2018-04-07T04:02:21.524Z,69.52
2018-04-07T04:04:49.441Z,69.50
2018-04-07T04:07:17.349Z,70.26
2018-04-07T04:09:45.309Z,69.82
2018-04-07T04:12:13.226Z,69.79
2018-04-07T04:14:41.152Z,70.40
2018-04-07T04:17:09.060Z,70.48
2018-04-07T04:19:36.985Z,70.54
2018-04-07T04:22:05.396Z,69.96
2018-04-07T04:24:33.377Z,70.60
2018-04-07T04:27:01.324Z,70.52
2018-04-07T04:29:29.236Z,70.84
2018-04-07T04:31:57.159Z,70.29
2018-04-07T04:34:25.080Z,70.86
2018-04-07T04:36:53.009Z,70.36
2018-04-07T04:39:20.896Z,70.83
2018-04-07T04:41:48.817Z,70.55
2018-04-07T04:44:16.731Z,70.75
2018-04-07T04:46:44.747Z,71.09
2018-04-07T04:49:12.729Z,70.87
2018-04-07T04:51:40.881Z,70.58
2018-04-07T04:54:09.541Z,70.24
2018-04-07T04:56:37.457Z,70.35
2018-04-07T04:59:05.388Z,70.39
2018-04-07T05:01:33.324Z,70.27
2018-04-07T05:04:01.280Z,70.65
2018-04-07T05:06:29.220Z,70.55
2018-04-07T05:08:57.518Z,70.03
2018-04-07T05:11:26.258Z,69.92
2018-04-07T05:13:54.454Z,69.84
2018-04-07T05:16:22.488Z,69.62
2018-04-07T05:18:50.460Z,69.04
2018-04-07T05:21:18.380Z,69.33
2018-04-07T05:23:46.325Z,68.77
2018-04-07T05:26:14.248Z,68.74
2018-04-07T05:28:42.156Z,68.50
2018-04-07T05:31:10.126Z,68.71
2018-04-07T05:33:38.128Z,68.17
2018-04-07T05:36:06.026Z,67.62
2018-04-07T05:38:33.998Z,67.81
2018-04-07T05:41:01.916Z,67.42
2018-04-07T05:43:29.837Z,67.63
2018-04-07T05:45:58.770Z,66.96
2018-04-07T05:48:26.680Z,66.41
2018-04-07T05:50:54.640Z,66.67
2018-04-07T05:53:22.561Z,66.65
2018-04-07T05:55:50.537Z,66.38
2018-04-07T05:58:18.508Z,65.95
2018-04-07T06:00:46.415Z,65.40
2018-04-07T06:03:14.419Z,64.59
2018-04-07T06:05:42.411Z,64.39
2018-04-07T06:08:10.513Z,63.63
2018-04-07T06:10:38.475Z,62.81
2018-04-07T06:13:06.387Z,62.44
2018-04-07T06:15:34.922Z,62.38
2018-04-07T06:18:02.820Z,61.67
2018-04-07T06:20:30.905Z,60.51
2018-04-07T06:22:58.831Z,60.22
2018-04-07T06:25:26.736Z,60.19
2018-04-07T06:27:54.727Z,59.05
2018-04-07T06:30:22.675Z,59.00
2018-04-07T06:32:50.595Z,59.01
2018-04-07T06:35:18.509Z,58.07
2018-04-07T06:37:46.452Z,57.90
2018-04-07T06:40:14.453Z,57.81
2018-04-07T06:42:42.388Z,57.32
2018-04-07T06:45:10.288Z,56.86
2018-04-07T06:47:38.210Z,56.75
2018-04-07T06:50:06.854Z,55.83
2018-04-07T06:52:34.792Z,55.97
2018-04-07T06:55:02.859Z,55.88
2018-04-07T06:57:30.717Z,55.40
2018-04-07T06:59:58.639Z,55.03
2018-04-07T07:02:26.571Z,55.59
2018-04-07T07:04:54.470Z,54.91
2018-04-07T07:07:22.375Z,54.91
2018-04-07T07:09:50.290Z,53.94
2018-04-07T07:12:18.251Z,53.80
2018-04-07T07:14:46.141Z,53.84
2018-04-07T07:17:14.054Z,53.68
2018-04-07T07:19:41.986Z,54.07
2018-04-07T07:22:09.884Z,53.69
2018-04-07T07:24:37.827Z,53.13
2018-04-07T07:27:05.807Z,53.78
2018-04-07T07:29:33.696Z,53.39
2018-04-07T07:32:01.632Z,52.94
2018-04-07T07:34:29.550Z,52.57
2018-04-07T07:36:57.514Z,52.07
2018-04-07T07:39:25.431Z,51.98
2018-04-07T07:41:53.378Z,51.09
2018-04-07T07:44:21.268Z,50.69
2018-04-07T07:46:49.183Z,50.71
2018-04-07T07:49:17.113Z,50.30
2018-04-07T07:51:45.027Z,49.13
2018-04-07T07:54:13.032Z,47.78
2018-04-07T07:56:40.953Z,48.08
2018-04-07T07:59:08.916Z,47.89
2018-04-07T08:01:36.843Z,47.13
2018-04-07T08:04:04.759Z,46.76
2018-04-07T08:06:32.897Z,46.21
2018-04-07T08:09:00.822Z,49.13
2018-04-07T08:11:28.739Z,46.69
2018-04-07T08:13:56.702Z,44.90
2018-04-07T08:16:24.666Z,44.79
2018-04-07T08:18:52.604Z,44.48
2018-04-07T08:21:20.733Z,44.48
2018-04-07T08:23:48.673Z,44.54
2018-04-07T08:26:16.767Z,44.21
2018-04-07T08:28:44.677Z,44.26
2018-04-07T08:31:12.618Z,43.64
2018-04-07T08:33:40.527Z,43.87
2018-04-07T08:36:08.444Z,42.78
2018-04-07T08:38:36.358Z,41.40
2018-04-07T08:41:04.303Z,42.08
2018-04-07T08:43:32.213Z,39.35
2018-04-07T08:46:00.137Z,38.92
2018-04-07T08:48:28.081Z,37.94
2018-04-07T08:50:56.033Z,36.69
2018-04-07T08:53:23.985Z,36.50
2018-04-07T08:55:51.876Z,36.53
2018-04-07T08:58:19.798Z,35.76
2018-04-07T09:00:47.731Z,35.62
2018-04-07T09:03:15.665Z,35.37
2018-04-07T09:05:43.637Z,35.59
2018-04-07T09:08:11.540Z,35.66
2018-04-07T09:10:39.461Z,34.82
2018-04-07T09:13:07.391Z,34.31
2018-04-07T09:15:35.317Z,34.56
2018-04-07T09:18:03.265Z,34.36
2018-04-07T09:20:31.173Z,33.76
2018-04-07T09:22:59.151Z,34.42
2018-04-07T09:25:27.090Z,33.94
2018-04-07T09:27:54.997Z,33.40
2018-04-07T09:30:22.956Z,33.13
2018-04-07T09:32:50.882Z,33.16
2018-04-07T09:35:18.797Z,32.80
2018-04-07T09:37:46.721Z,32.86
2018-04-07T09:40:15.169Z,31.83
2018-04-07T09:42:43.049Z,31.14
2018-04-07T09:45:10.969Z,31.70
2018-04-07T09:47:38.931Z,30.61
2018-04-07T09:50:06.841Z,31.00
2018-04-07T09:52:34.747Z,30.67
2018-04-07T09:55:02.880Z,30.09
2018-04-07T09:57:30.837Z,30.46
2018-04-07T09:59:58.762Z,30.06
2018-04-07T10:02:41.575Z,29.62
2018-04-07T10:05:09.508Z,29.35
2018-04-07T10:07:37.415Z,29.45
2018-04-07T10:10:05.333Z,29.95
2018-04-07T10:12:33.245Z,27.89
2018-04-07T10:15:01.183Z,27.87
2018-04-07T10:17:29.092Z,27.79
2018-04-07T10:19:57.004Z,28.33
2018-04-07T10:22:24.934Z,27.94
2018-04-07T10:24:52.866Z,27.01
2018-04-07T10:27:20.803Z,26.66
2018-04-07T10:29:48.746Z,27.48
2018-04-07T10:32:16.649Z,27.16
2018-04-07T10:34:44.653Z,27.23
2018-04-07T10:37:12.633Z,26.51
2018-04-07T10:39:40.557Z,26.82
2018-04-07T10:42:08.453Z,27.82
2018-04-07T10:44:36.367Z,27.79
2018-04-07T10:47:04.575Z,27.06
2018-04-07T10:49:34.141Z,26.96
2018-04-07T10:52:02.039Z,28.55
2018-04-07T10:54:29.949Z,28.43
2018-04-07T10:56:57.876Z,27.64
2018-04-07T10:59:25.803Z,26.91
2018-04-07T11:01:53.706Z,27.47
2018-04-07T11:04:22.984Z,27.57
2018-04-07T11:06:50.913Z,28.42
2018-04-07T11:09:18.857Z,28.78
2018-04-07T11:11:47.076Z,28.54
2018-04-07T11:14:14.981Z,29.06
2018-04-07T11:16:42.886Z,30.23
2018-04-07T11:19:10.804Z,29.13
2018-04-07T11:21:38.715Z,28.46
2018-04-07T11:24:06.648Z,28.33
2018-04-07T11:26:34.560Z,27.81
2018-04-07T11:29:02.477Z,27.10
2018-04-07T11:31:30.403Z,26.97
2018-04-07T11:33:58.317Z,27.09
2018-04-07T11:36:27.167Z,26.62
2018-04-07T11:38:55.075Z,25.90
2018-04-07T11:41:23.245Z,25.39
2018-04-07T11:43:51.219Z,25.90
2018-04-07T11:46:19.130Z,25.46
2018-04-07T11:48:47.037Z,25.26
2018-04-07T11:51:14.946Z,25.37
2018-04-07T11:53:42.892Z,25.14
2018-04-07T11:56:10.782Z,25.53
2018-04-07T11:58:38.748Z,25.88
2018-04-07T12:01:06.640Z,25.85
2018-04-07T12:03:34.545Z,26.59
2018-04-07T12:06:02.452Z,26.21
2018-04-07T12:08:30.343Z,26.65
2018-04-07T12:10:58.265Z,25.62
2018-04-07T12:13:26.165Z,24.93
2018-04-07T12:15:54.281Z,24.96
2018-04-07T12:18:22.179Z,25.04
2018-04-07T12:20:50.106Z,26.02
2018-04-07T12:23:18.029Z,26.36
2018-04-07T12:25:45.998Z,26.26
2018-04-07T12:28:13.906Z,25.57
2018-04-07T12:30:41.797Z,26.17
2018-04-07T12:33:09.744Z,25.81
2018-04-07T12:35:38.097Z,26.29
2018-04-07T12:38:06.022Z,25.30
2018-04-07T12:40:33.928Z,25.63
2018-04-07T12:43:01.855Z,26.04
2018-04-07T12:45:30.261Z,25.65
2018-04-07T12:47:59.772Z,25.72
2018-04-07T12:50:31.328Z,25.53
2018-04-07T12:52:59.365Z,24.97
2018-04-07T12:55:27.462Z,25.52
2018-04-07T12:57:55.477Z,25.49
2018-04-07T13:00:23.504Z,25.14
2018-04-07T13:02:51.579Z,26.07
2018-04-07T13:05:19.789Z,25.91
2018-04-07T13:07:47.951Z,24.88
2018-04-07T13:10:16.380Z,24.56
2018-04-07T13:12:44.337Z,24.22
2018-04-07T13:15:12.245Z,25.51
2018-04-07T13:17:40.336Z,26.26
2018-04-07T13:20:08.422Z,26.48
2018-04-07T13:22:36.794Z,26.23
2018-04-07T13:25:04.889Z,26.10
2018-04-07T13:27:33.316Z,26.33
2018-04-07T13:30:01.832Z,26.32
2018-04-07T13:32:29.873Z,26.64
2018-04-07T13:34:57.999Z,26.46
2018-04-07T13:37:26.046Z,26.46
2018-04-07T13:39:54.808Z,26.62
2018-04-07T13:42:22.724Z,26.91
2018-04-07T13:44:50.645Z,26.04
2018-04-07T13:47:18.755Z,26.80
2018-04-07T13:49:46.686Z,26.75
2018-04-07T13:52:14.603Z,26.28
2018-04-07T13:54:42.518Z,26.56
2018-04-07T13:57:10.476Z,26.91
2018-04-07T13:59:38.428Z,27.41
2018-04-07T14:02:06.329Z,27.43
2018-04-07T14:04:34.270Z,27.29
2018-04-07T14:07:02.180Z,27.53
2018-04-07T14:09:30.101Z,27.78
2018-04-07T14:11:58.101Z,27.55
2018-04-07T14:14:26.029Z,27.69
2018-04-07T14:16:53.949Z,27.99
2018-04-07T14:19:21.848Z,27.90
2018-04-07T14:21:49.773Z,28.27
2018-04-07T14:24:17.704Z,28.68
2018-04-07T14:26:45.644Z,28.45
2018-04-07T14:29:13.575Z,28.44
2018-04-07T14:31:41.486Z,29.13
2018-04-07T14:34:09.407Z,28.91
2018-04-07T14:36:37.334Z,29.51
2018-04-07T14:39:06.117Z,29.64
2018-04-07T14:41:34.058Z,29.07
2018-04-07T14:44:01.991Z,29.78
2018-04-07T14:46:29.887Z,30.15
2018-04-07T14:48:57.830Z,31.02
2018-04-07T14:51:25.746Z,31.04
2018-04-07T14:53:53.665Z,30.71
2018-04-07T14:56:21.577Z,30.25
2018-04-07T14:58:49.485Z,30.55
2018-04-07T15:01:17.406Z,30.98
2018-04-07T15:03:45.300Z,31.03
2018-04-07T15:06:13.246Z,31.03
2018-04-07T15:08:41.161Z,31.24
2018-04-07T15:11:09.450Z,31.54
2018-04-07T15:13:37.376Z,31.80
2018-04-07T15:16:05.332Z,32.06
2018-04-07T15:18:33.215Z,31.57
2018-04-07T15:21:01.131Z,31.80
2018-04-07T15:23:29.046Z,31.61
2018-04-07T15:25:57.613Z,31.71
2018-04-07T15:28:25.536Z,32.06
2018-04-07T15:30:53.457Z,31.82
2018-04-07T15:33:21.371Z,31.96
2018-04-07T15:35:49.588Z,32.35
2018-04-07T15:38:17.520Z,32.70
2018-04-07T15:40:45.525Z,32.71
2018-04-07T15:43:13.457Z,32.86
2018-04-07T15:45:41.366Z,33.12
2018-04-07T15:48:09.293Z,33.00
2018-04-07T15:50:37.386Z,33.12
2018-04-07T15:53:05.311Z,33.54
2018-04-07T15:55:33.209Z,34.60
2018-04-07T15:58:01.190Z,35.27
2018-04-07T16:00:29.120Z,34.82
2018-04-07T16:02:57.033Z,35.35
2018-04-07T16:05:25.184Z,35.41
2018-04-07T16:07:53.274Z,35.92
2018-04-07T16:10:21.344Z,35.49
2018-04-07T16:12:49.308Z,35.40
2018-04-07T16:15:17.209Z,36.36
2018-04-07T16:17:45.121Z,36.22
2018-04-07T16:20:13.349Z,36.49
2018-04-07T16:22:41.946Z,36.31
2018-04-07T16:25:10.588Z,36.00
2018-04-07T16:27:38.458Z,36.03
2018-04-07T16:30:06.353Z,36.05
2018-04-07T16:32:34.269Z,36.37
2018-04-07T16:35:02.226Z,36.90
2018-04-07T16:37:30.150Z,36.85
2018-04-07T16:39:58.050Z,37.33
2018-04-07T16:42:25.936Z,37.33
2018-04-07T16:44:53.890Z,37.91
2018-04-07T16:47:22.138Z,37.96
2018-04-07T16:49:50.202Z,37.64
2018-04-07T16:52:18.156Z,37.89
2018-04-07T16:54:46.144Z,38.01
2018-04-07T16:57:14.061Z,37.64
2018-04-07T16:59:42.020Z,38.05
2018-04-07T17:02:09.934Z,38.42
2018-04-07T17:04:37.866Z,38.64
2018-04-07T17:07:05.765Z,38.87
2018-04-07T17:09:33.697Z,38.84
2018-04-07T17:12:01.742Z,39.14
2018-04-07T17:14:29.552Z,39.34
2018-04-07T17:16:57.733Z,39.74
2018-04-07T17:19:26.643Z,39.94
2018-04-07T17:21:54.589Z,40.13
2018-04-07T17:24:22.500Z,40.47
2018-04-07T17:26:50.656Z,40.14
2018-04-07T17:29:18.555Z,40.68
2018-04-07T17:31:46.492Z,40.74
2018-04-07T17:34:14.514Z,40.71
2018-04-07T17:36:42.431Z,41.11
2018-04-07T17:39:10.357Z,40.78
2018-04-07T17:41:38.289Z,40.80
2018-04-07T17:44:06.214Z,41.10
2018-04-07T17:46:34.137Z,41.08
2018-04-07T17:49:06.237Z,40.92
2018-04-07T17:51:30.008Z,41.06
2018-04-07T17:53:58.496Z,41.20
2018-04-07T17:56:26.637Z,41.62
2018-04-07T17:58:55.044Z,41.97
2018-04-07T18:01:23.264Z,42.26
2018-04-07T18:03:51.182Z,42.70
2018-04-07T18:06:19.134Z,43.00
2018-04-07T18:08:47.081Z,42.88
2018-04-07T18:11:15.066Z,43.15
2018-04-07T18:13:43.037Z,42.87
2018-04-07T18:16:10.961Z,43.09
2018-04-07T18:18:38.903Z,43.35
2018-04-07T18:21:06.867Z,43.03
2018-04-07T18:23:34.802Z,43.14
2018-04-07T18:26:02.719Z,43.41
2018-04-07T18:28:30.700Z,43.28
2018-04-07T18:30:58.824Z,43.69
2018-04-07T18:33:26.879Z,43.61
2018-04-07T18:35:54.753Z,43.90
2018-04-07T18:38:23.632Z,44.13
2018-04-07T18:40:51.767Z,43.87
2018-04-07T18:43:19.705Z,43.96
2018-04-07T18:45:47.661Z,44.25
2018-04-07T18:48:15.628Z,44.37
2018-04-07T18:50:43.529Z,44.49
2018-04-07T18:53:11.507Z,44.83
2018-04-07T18:55:39.438Z,44.90
2018-04-07T18:58:07.645Z,45.38
2018-04-07T19:00:35.833Z,45.70
2018-04-07T19:03:03.734Z,45.67
2018-04-07T19:05:31.657Z,45.56
2018-04-07T19:07:59.598Z,45.54
2018-04-07T19:10:27.519Z,45.77
2018-04-07T19:12:55.458Z,46.12
2018-04-07T19:15:23.430Z,46.54
2018-04-07T19:17:51.360Z,46.75
2018-04-07T19:20:20.241Z,47.04
2018-04-07T19:22:48.612Z,47.30
2018-04-07T19:25:16.528Z,47.35
2018-04-07T19:27:44.458Z,49.88
2018-04-07T19:30:12.431Z,49.22
2018-04-07T19:32:40.389Z,48.07
2018-04-07T19:35:08.304Z,48.05
2018-04-07T19:37:36.226Z,47.79
2018-04-07T19:40:04.174Z,47.83
2018-04-07T19:42:32.095Z,47.99
2018-04-07T19:45:00.055Z,47.97
2018-04-07T19:47:28.025Z,48.15
2018-04-07T19:49:56.311Z,48.11
2018-04-07T19:52:24.242Z,47.86
2018-04-07T19:54:52.222Z,47.73
2018-04-07T19:57:20.572Z,48.10
2018-04-07T19:59:48.496Z,48.08
2018-04-07T20:02:16.413Z,48.32
2018-04-07T20:04:44.352Z,48.50
2018-04-07T20:07:12.338Z,48.46
2018-04-07T20:09:40.263Z,48.95
2018-04-07T20:12:08.156Z,49.33
2018-04-07T20:14:36.094Z,49.95
2018-04-07T20:17:04.030Z,49.74
2018-04-07T20:19:31.950Z,49.22
2018-04-07T20:21:59.853Z,49.46
2018-04-07T20:24:27.868Z,48.95
2018-04-07T20:26:55.917Z,49.05
2018-04-07T20:29:23.867Z,48.61
2018-04-07T20:31:51.886Z,49.15
2018-04-07T20:34:19.832Z,48.70
2018-04-07T20:36:47.780Z,49.00
2018-04-07T20:39:15.769Z,48.79
2018-04-07T20:41:43.721Z,49.24
2018-04-07T20:44:11.612Z,49.27
2018-04-07T20:46:39.534Z,49.43
2018-04-07T20:49:07.635Z,49.80
2018-04-07T20:51:35.523Z,50.05
2018-04-07T20:54:03.441Z,50.27
2018-04-07T20:56:31.379Z,50.35
2018-04-07T20:58:59.413Z,50.46
2018-04-07T21:01:27.354Z,50.65
2018-04-07T21:03:55.264Z,50.74
2018-04-07T21:06:23.462Z,51.06
2018-04-07T21:08:51.423Z,51.12
2018-04-07T21:11:19.350Z,51.06
2018-04-07T21:13:47.319Z,51.43
2018-04-07T21:16:15.236Z,51.56
2018-04-07T21:18:43.926Z,51.44
2018-04-07T21:21:11.852Z,51.62
2018-04-07T21:23:40.146Z,51.51
2018-04-07T21:26:08.087Z,51.50
2018-04-07T21:28:36.008Z,51.67
2018-04-07T21:31:03.908Z,51.59
2018-04-07T21:33:31.942Z,52.01
2018-04-07T21:35:59.854Z,51.77
2018-04-07T21:38:27.789Z,52.24
2018-04-07T21:40:55.743Z,52.56
2018-04-07T21:43:23.661Z,52.43
2018-04-07T21:45:51.601Z,52.82
2018-04-07T21:48:19.535Z,52.98
2018-04-07T21:50:47.455Z,53.04
2018-04-07T21:53:15.365Z,53.31
2018-04-07T21:55:43.646Z,53.11
2018-04-07T21:58:11.795Z,53.25
2018-04-07T22:00:39.731Z,53.70
2018-04-07T22:03:07.647Z,53.98
2018-04-07T22:05:35.640Z,53.86
2018-04-07T22:08:03.581Z,54.41
2018-04-07T22:10:31.495Z,54.36
2018-04-07T22:12:59.430Z,54.53
2018-04-07T22:15:27.352Z,54.45
2018-04-07T22:17:55.279Z,54.33
2018-04-07T22:20:23.231Z,54.54
2018-04-07T22:22:51.216Z,54.56
2018-04-07T22:25:19.170Z,54.68
2018-04-07T22:27:47.087Z,54.88
2018-04-07T22:30:15.213Z,55.13
2018-04-07T22:32:43.361Z,55.16
2018-04-07T22:35:11.383Z,55.50
2018-04-07T22:37:39.338Z,55.24
2018-04-07T22:40:07.249Z,55.85
2018-04-07T22:42:35.183Z,55.87
2018-04-07T22:45:03.134Z,56.42
2018-04-07T22:47:31.057Z,56.10
2018-04-07T22:49:58.988Z,56.25
2018-04-07T22:52:26.944Z,56.03
2018-04-07T22:54:54.889Z,56.30
2018-04-07T22:57:22.828Z,56.20
2018-04-07T22:59:50.730Z,56.36
2018-04-07T23:02:18.664Z,56.20
2018-04-07T23:04:46.588Z,55.96
2018-04-07T23:07:14.522Z,56.45
2018-04-07T23:09:42.444Z,56.32
2018-04-07T23:12:10.393Z,56.26
2018-04-07T23:14:38.310Z,56.69
2018-04-07T23:17:06.279Z,56.29
2018-04-07T23:19:34.197Z,56.35
2018-04-07T23:22:02.419Z,56.72
2018-04-07T23:24:30.337Z,56.68
2018-04-07T23:26:58.281Z,56.95
2018-04-07T23:29:26.208Z,56.78
2018-04-07T23:31:54.120Z,56.87
2018-04-07T23:34:22.045Z,56.87
2018-04-07T23:36:49.985Z,57.06
2018-04-07T23:39:17.912Z,57.19
2018-04-07T23:41:45.840Z,56.96
2018-04-07T23:44:13.772Z,57.17
2018-04-07T23:46:41.729Z,57.24
2018-04-07T23:49:09.843Z,57.15
2018-04-07T23:51:37.750Z,57.03
2018-04-07T23:54:05.659Z,57.68
2018-04-07T23:56:33.593Z,57.40
2018-04-07T23:59:01.524Z,58.08
